Time;durP1;ratioP1;P1;durP2;ratioP2;P2;SDS_P1;SDS_P2;PMS_P1;PMS_P2;Temp;Humidity;BMP_temperature;BMP_pressure;BME280_temperature;BME280_humidity;BME280_pressure;Samples;Min_cycle;Max_cycle;Signal;HPM_P1;HPM_P2
2023/07/23 00:00:37;;;;;;;6.78;2.63;;;15.20;99.90;;;;;;5094497;28;20098;-45
2023/07/23 00:03:03;;;;;;;5.38;2.53;;;15.10;99.90;;;;;;5096057;28;20143;-45
2023/07/23 00:05:28;;;;;;;5.65;2.17;;;15.10;99.90;;;;;;5095626;28;20496;-45
2023/07/23 00:07:56;;;;;;;7.55;2.78;;;15.10;99.90;;;;;;5095804;28;20101;-45
2023/07/23 00:10:21;;;;;;;5.10;2.53;;;15.10;99.90;;;;;;5095836;28;20053;-45
2023/07/23 00:12:47;;;;;;;5.43;2.58;;;15.10;99.90;;;;;;5095703;28;20127;-45
2023/07/23 00:15:13;;;;;;;6.00;2.77;;;15.10;99.90;;;;;;5095600;28;20084;-45
2023/07/23 00:17:39;;;;;;;6.47;2.60;;;15.10;99.90;;;;;;5095580;28;20636;-46
2023/07/23 00:20:07;;;;;;;6.10;2.42;;;15.10;99.90;;;;;;5095854;28;20398;-46
2023/07/23 00:22:33;;;;;;;5.63;2.50;;;15.00;99.90;;;;;;5095448;28;20048;-46
2023/07/23 00:24:59;;;;;;;4.97;2.35;;;15.10;99.90;;;;;;5095369;28;20474;-46
2023/07/23 00:27:25;;;;;;;5.32;2.25;;;15.00;99.90;;;;;;5094169;28;20055;-45
2023/07/23 00:29:51;;;;;;;5.95;2.10;;;15.00;99.90;;;;;;5095391;28;20059;-44
2023/07/23 00:32:16;;;;;;;7.97;2.73;;;15.10;99.90;;;;;;5095114;28;20048;-46
2023/07/23 00:34:42;;;;;;;5.43;2.03;;;15.00;99.90;;;;;;5095316;28;20284;-45
2023/07/23 00:37:08;;;;;;;7.95;2.83;;;15.00;99.90;;;;;;5095263;28;20043;-45
2023/07/23 00:39:34;;;;;;;5.53;2.15;;;15.00;99.90;;;;;;5095246;28;20039;-49
2023/07/23 00:42:00;;;;;;;6.90;2.38;;;15.00;99.90;;;;;;5095416;28;20047;-45
2023/07/23 00:44:26;;;;;;;5.53;2.38;;;15.00;99.90;;;;;;5095085;28;20380;-47
2023/07/23 00:46:54;;;;;;;5.05;2.35;;;15.00;99.90;;;;;;5094846;28;20094;-46
2023/07/23 00:49:20;;;;;;;6.30;2.45;;;15.00;99.90;;;;;;5095088;28;20548;-46
2023/07/23 00:51:46;;;;;;;;;;;14.90;99.90;;;;;;5095517;28;20098;-45
2023/07/23 00:54:13;;;;;;;6.82;2.30;;;14.90;99.90;;;;;;5093780;28;20387;-46
2023/07/23 00:56:40;;;;;;;5.65;2.60;;;14.90;99.90;;;;;;5094839;28;20083;-45
2023/07/23 00:59:07;;;;;;;6.28;2.50;;;14.90;99.90;;;;;;5094901;28;20070;-46
2023/07/23 01:01:33;;;;;;;6.15;2.58;;;14.90;99.90;;;;;;5093741;28;20044;-48
2023/07/23 01:03:58;;;;;;;7.53;3.08;;;14.90;99.90;;;;;;5095005;28;20063;-48
2023/07/23 01:06:26;;;;;;;6.43;2.70;;;14.90;99.90;;;;;;5094817;28;20059;-48
2023/07/23 01:08:55;;;;;;;6.53;2.42;;;14.90;99.90;;;;;;5094731;28;20063;-45
2023/07/23 01:11:25;;;;;;;7.47;3.22;;;14.90;99.90;;;;;;5094626;28;20122;-46
2023/07/23 01:13:51;;;;;;;5.78;2.10;;;14.90;99.90;;;;;;5094634;28;20044;-45
2023/07/23 01:16:18;;;;;;;7.70;2.95;;;14.90;99.90;;;;;;5094540;28;20084;-45
2023/07/23 01:18:44;;;;;;;4.78;2.10;;;14.90;99.90;;;;;;5094516;28;20361;-45
2023/07/23 01:21:10;;;;;;;7.50;3.00;;;14.90;99.90;;;;;;5094465;28;20043;-46
2023/07/23 01:23:36;;;;;;;5.72;2.58;;;14.90;99.90;;;;;;5094442;28;20052;-45
2023/07/23 01:26:03;;;;;;;6.05;2.75;;;14.90;99.90;;;;;;5094612;28;20126;-44
2023/07/23 01:28:29;;;;;;;6.03;2.72;;;14.90;99.90;;;;;;5094362;28;20482;-44
2023/07/23 01:30:56;;;;;;;7.18;3.00;;;14.90;99.90;;;;;;5094345;28;20394;-44
2023/07/23 01:33:25;;;;;;;6.20;2.83;;;14.90;99.90;;;;;;5094318;28;20532;-45
2023/07/23 01:35:57;;;;;;;5.35;2.20;;;14.90;99.90;;;;;;5094277;28;20052;-44
2023/07/23 01:38:23;;;;;;;7.07;2.58;;;14.80;99.90;;;;;;5094365;28;20043;-44
2023/07/23 01:40:50;;;;;;;5.50;2.40;;;14.80;99.90;;;;;;5094108;28;20501;-46
2023/07/23 01:43:16;;;;;;;5.82;2.30;;;14.80;99.90;;;;;;5093918;28;20043;-45
2023/07/23 01:45:46;;;;;;;6.57;2.80;;;14.80;99.90;;;;;;5094141;28;20048;-45
2023/07/23 01:48:16;;;;;;;6.35;2.60;;;14.80;99.90;;;;;;5094194;28;20083;-45
2023/07/23 01:50:41;;;;;;;5.32;2.42;;;14.80;99.90;;;;;;5094053;28;20050;-45
2023/07/23 01:53:08;;;;;;;6.30;2.53;;;14.80;99.90;;;;;;5094006;28;20398;-45
2023/07/23 01:55:34;;;;;;;6.55;2.72;;;14.80;99.90;;;;;;5093787;28;20084;-46
2023/07/23 01:58:00;;;;;;;5.28;2.03;;;14.80;99.90;;;;;;5093867;28;20076;-45
2023/07/23 02:00:26;;;;;;;5.32;2.38;;;14.80;99.90;;;;;;5093634;28;20529;-45
2023/07/23 02:02:52;;;;;;;6.70;2.60;;;14.80;99.90;;;;;;5093235;28;20060;-45
2023/07/23 02:05:19;;;;;;;6.25;2.22;;;14.80;99.90;;;;;;5093886;28;20142;-45
2023/07/23 02:07:44;;;;;;;5.30;2.22;;;14.80;99.90;;;;;;5093785;28;20146;-44
2023/07/23 02:10:11;;;;;;;4.95;1.85;;;14.80;99.90;;;;;;5093934;28;20040;-45
2023/07/23 02:12:37;;;;;;;5.53;1.90;;;14.80;99.90;;;;;;5093258;28;20043;-45
2023/07/23 02:15:03;;;;;;;5.80;2.38;;;14.80;99.90;;;;;;5094228;28;20044;-45
2023/07/23 02:17:29;;;;;;;5.68;2.50;;;14.80;99.90;;;;;;5093795;28;20051;-45
2023/07/23 02:19:55;;;;;;;6.38;2.20;;;14.80;99.90;;;;;;5093758;28;20039;-44
2023/07/23 02:22:21;;;;;;;5.75;2.15;;;14.80;99.90;;;;;;5092318;28;20076;-45
2023/07/23 02:24:46;;;;;;;4.93;1.97;;;14.90;99.90;;;;;;5093669;28;20145;-44
2023/07/23 02:27:14;;;;;;;5.57;2.33;;;14.80;99.90;;;;;;5093573;28;20044;-44
2023/07/23 02:29:40;;;;;;;4.90;1.85;;;14.90;99.90;;;;;;5093850;28;20055;-45
2023/07/23 02:32:06;;;;;;;5.55;2.03;;;14.80;99.90;;;;;;5093579;28;20040;-45
2023/07/23 02:34:32;;;;;;;;;;;14.90;99.90;;;;;;5093929;28;20052;-45
2023/07/23 02:36:57;;;;;;;7.00;2.03;;;14.80;99.90;;;;;;5093529;28;19954;-45
2023/07/23 02:39:23;;;;;;;6.75;2.58;;;14.80;99.90;;;;;;5093403;28;20407;-46
2023/07/23 02:41:49;;;;;;;6.28;2.28;;;14.90;99.90;;;;;;5093230;28;20036;-47
2023/07/23 02:44:15;;;;;;;6.13;2.50;;;14.90;99.90;;;;;;5093497;28;20044;-45
2023/07/23 02:46:41;;;;;;;4.73;1.80;;;14.90;99.90;;;;;;5093552;28;20052;-45
2023/07/23 02:49:06;;;;;;;5.90;2.60;;;14.80;99.90;;;;;;5093317;28;20078;-45
2023/07/23 02:51:32;;;;;;;4.27;1.90;;;14.80;99.90;;;;;;5093431;28;20036;-45
2023/07/23 02:53:58;;;;;;;5.00;1.77;;;14.80;99.90;;;;;;5093555;28;20614;-46
2023/07/23 02:56:23;;;;;;;7.53;2.53;;;14.80;99.90;;;;;;5093312;28;20048;-45
2023/07/23 02:58:49;;;;;;;6.30;2.03;;;14.80;99.90;;;;;;5093364;28;20051;-44
2023/07/23 03:01:15;;;;;;;5.18;2.40;;;14.80;99.90;;;;;;5093383;28;20385;-45
2023/07/23 03:03:41;;;;;;;5.03;2.50;;;14.80;99.90;;;;;;5093155;28;20106;-46
2023/07/23 03:06:07;;;;;;;4.80;2.17;;;14.80;99.90;;;;;;5092216;28;20462;-45
2023/07/23 03:08:33;;;;;;;4.43;2.03;;;14.80;99.90;;;;;;5093123;28;20284;-45
2023/07/23 03:10:58;;;;;;;5.27;2.40;;;14.90;99.90;;;;;;5093171;28;20446;-45
2023/07/23 03:13:24;;;;;;;8.00;2.60;;;14.80;99.90;;;;;;5093245;28;20384;-45
2023/07/23 03:15:49;;;;;;;7.00;2.37;;;14.80;99.90;;;;;;5093280;28;20739;-45
2023/07/23 03:18:15;;;;;;;8.77;2.40;;;14.80;99.90;;;;;;5093579;28;20090;-44
2023/07/23 03:20:41;;;;;;;8.60;2.67;;;14.80;99.90;;;;;;5093159;28;20364;-45
2023/07/23 03:23:06;;;;;;;7.37;2.97;;;14.80;99.90;;;;;;5092263;28;20433;-44
2023/07/23 03:25:32;;;;;;;6.65;2.33;;;14.80;99.90;;;;;;5094961;28;20044;-46
2023/07/23 03:27:59;;;;;;;5.83;2.67;;;14.80;99.90;;;;;;5097183;28;20048;-45
2023/07/23 03:30:28;;;;;;;5.93;2.22;;;14.80;99.90;;;;;;5096680;28;20123;-46
2023/07/23 03:32:54;;;;;;;7.82;2.70;;;14.80;99.90;;;;;;5096594;28;20051;-45
2023/07/23 03:35:20;;;;;;;6.20;2.42;;;14.80;99.90;;;;;;5096630;28;20048;-45
2023/07/23 03:37:46;;;;;;;5.63;2.67;;;14.80;99.90;;;;;;5095638;28;20415;-45
2023/07/23 03:40:12;;;;;;;6.68;2.80;;;14.80;99.90;;;;;;5096299;28;20195;-46
2023/07/23 03:42:37;;;;;;;5.25;2.63;;;14.80;99.90;;;;;;5096406;28;20382;-45
2023/07/23 03:45:03;;;;;;;5.57;2.63;;;14.80;99.90;;;;;;5096518;28;20140;-45
2023/07/23 03:47:29;;;;;;;6.28;2.40;;;14.80;99.90;;;;;;5096176;28;20290;-45
2023/07/23 03:49:55;;;;;;;6.30;3.10;;;14.80;99.90;;;;;;5096249;28;20051;-45
2023/07/23 03:52:22;;;;;;;5.90;2.42;;;14.80;99.90;;;;;;5096375;28;20046;-45
2023/07/23 03:54:48;;;;;;;7.20;2.70;;;14.80;99.90;;;;;;5096136;28;20070;-45
2023/07/23 03:57:14;;;;;;;7.35;2.70;;;14.80;99.90;;;;;;5095969;28;20490;-46
2023/07/23 03:59:41;;;;;;;5.47;2.60;;;14.80;99.90;;;;;;5096043;28;20091;-45
2023/07/23 04:02:08;;;;;;;6.63;2.35;;;14.90;99.90;;;;;;5096195;28;20097;-46
2023/07/23 04:04:34;;;;;;;;;;;14.90;99.90;;;;;;5096121;28;20143;-45
2023/07/23 04:07:00;;;;;;;6.28;2.80;;;14.90;99.90;;;;;;5096056;28;19920;-45
2023/07/23 04:09:26;;;;;;;9.73;3.28;;;14.80;99.90;;;;;;5095834;28;20542;-47
2023/07/23 04:11:52;;;;;;;6.03;2.80;;;14.90;99.90;;;;;;5095745;28;20128;-46
2023/07/23 04:14:17;;;;;;;5.72;2.47;;;14.90;99.90;;;;;;5095753;28;20047;-46
2023/07/23 04:16:43;;;;;;;6.10;2.67;;;14.90;99.90;;;;;;5095622;28;20052;-46
2023/07/23 04:19:08;;;;;;;6.30;2.77;;;14.90;99.90;;;;;;5095611;28;20079;-47
2023/07/23 04:21:34;;;;;;;6.20;2.70;;;14.90;99.90;;;;;;5095430;28;20047;-46
2023/07/23 04:24:00;;;;;;;6.80;2.57;;;14.90;99.90;;;;;;5095687;28;20282;-45
2023/07/23 04:26:30;;;;;;;5.03;2.35;;;14.90;99.90;;;;;;5096038;28;20047;-45
2023/07/23 04:28:56;;;;;;;7.38;2.58;;;14.90;99.90;;;;;;5096255;28;20131;-45
2023/07/23 04:31:22;;;;;;;6.55;2.85;;;14.90;99.90;;;;;;5095629;28;20051;-45
2023/07/23 04:33:48;;;;;;;5.43;2.60;;;14.90;99.90;;;;;;5095288;28;20044;-46
2023/07/23 04:36:14;;;;;;;7.20;2.42;;;14.90;99.90;;;;;;5095299;28;20278;-47
2023/07/23 04:38:41;;;;;;;7.55;2.63;;;14.90;99.90;;;;;;5095073;28;20517;-45
2023/07/23 04:41:07;;;;;;;5.45;2.53;;;14.90;99.90;;;;;;5095477;28;20054;-46
2023/07/23 04:43:35;;;;;;;6.55;2.85;;;14.90;99.90;;;;;;5095303;28;20055;-45
2023/07/23 04:46:01;;;;;;;8.82;2.80;;;14.90;99.90;;;;;;5095142;28;20056;-46
2023/07/23 04:48:27;;;;;;;6.32;2.92;;;14.90;99.90;;;;;;5094989;28;20516;-46
2023/07/23 04:51:00;;;;;;;7.80;2.60;;;14.90;99.90;;;;;;5093757;28;20097;-45
2023/07/23 04:53:26;;;;;;;6.30;2.80;;;14.90;99.90;;;;;;5094242;28;20071;-45
2023/07/23 04:55:53;;;;;;;8.00;3.00;;;14.90;99.90;;;;;;5095079;28;20445;-45
2023/07/23 04:58:19;;;;;;;5.57;2.40;;;14.90;99.90;;;;;;5095418;28;20044;-45
2023/07/23 05:00:44;;;;;;;6.65;2.72;;;14.90;99.90;;;;;;5094732;28;20131;-45
2023/07/23 05:03:11;;;;;;;5.60;2.53;;;14.90;99.90;;;;;;5093865;28;20067;-45
2023/07/23 05:05:48;;;;;;;7.10;2.58;;;14.90;99.90;;;;;;5094396;28;20445;-45
2023/07/23 05:08:14;;;;;;;6.25;3.08;;;14.90;99.90;;;;;;5094877;28;20044;-45
2023/07/23 05:10:40;;;;;;;5.55;2.50;;;14.90;99.90;;;;;;5094669;28;20470;-45
2023/07/23 05:13:06;;;;;;;7.63;2.50;;;15.00;99.90;;;;;;5094896;28;20402;-45
2023/07/23 05:15:31;;;;;;;5.97;2.40;;;14.90;99.90;;;;;;5094779;28;20364;-45
2023/07/23 05:17:57;;;;;;;7.15;2.33;;;14.90;99.90;;;;;;5094492;28;20390;-47
2023/07/23 05:20:23;;;;;;;7.80;2.63;;;15.00;99.90;;;;;;5094284;28;20050;-45
2023/07/23 05:22:49;;;;;;;5.72;2.65;;;15.00;99.90;;;;;;5094502;28;20058;-46
2023/07/23 05:25:15;;;;;;;8.35;3.15;;;15.00;99.90;;;;;;5094495;28;20048;-45
2023/07/23 05:27:40;;;;;;;5.60;2.80;;;15.00;99.90;;;;;;5094409;28;20376;-46
2023/07/23 05:30:06;;;;;;;7.27;3.83;;;15.00;99.90;;;;;;5094324;28;20053;-45
2023/07/23 05:32:32;;;;;;;6.03;2.47;;;15.00;99.90;;;;;;5094194;28;20036;-45
2023/07/23 05:34:58;;;;;;;6.40;3.17;;;15.00;99.90;;;;;;5094147;28;20080;-45
2023/07/23 05:37:24;;;;;;;7.45;3.08;;;15.00;99.90;;;;;;5094290;28;20086;-45
2023/07/23 05:39:54;;;;;;;6.75;2.75;;;15.00;99.90;;;;;;5094374;28;20075;-45
2023/07/23 05:42:22;;;;;;;8.20;2.88;;;15.00;99.90;;;;;;5094114;28;20087;-45
2023/07/23 05:44:49;;;;;;;6.75;3.00;;;15.00;99.90;;;;;;5094303;28;20074;-46
2023/07/23 05:47:14;;;;;;;5.65;2.78;;;15.00;99.90;;;;;;5093631;28;20044;-45
2023/07/23 05:49:40;;;;;;;6.70;3.30;;;15.00;99.90;;;;;;5093874;28;20449;-45
2023/07/23 05:52:06;;;;;;;6.83;3.03;;;15.00;99.90;;;;;;5094114;28;20736;-46
2023/07/23 05:54:32;;;;;;;8.90;3.33;;;15.00;99.90;;;;;;5093999;28;20451;-45
2023/07/23 05:56:59;;;;;;;6.57;3.13;;;15.00;99.90;;;;;;5094118;28;20127;-45
2023/07/23 05:59:24;;;;;;;6.65;2.85;;;15.10;99.90;;;;;;5093720;28;20134;-45
2023/07/23 06:01:50;;;;;;;6.30;3.45;;;15.00;99.90;;;;;;5093761;28;20082;-45
2023/07/23 06:04:16;;;;;;;9.68;3.55;;;15.10;99.90;;;;;;5092545;28;20052;-45
2023/07/23 06:06:42;;;;;;;7.18;2.80;;;15.00;99.90;;;;;;5093876;28;20100;-45
2023/07/23 06:09:08;;;;;;;7.50;2.90;;;15.10;99.90;;;;;;5093813;28;20089;-45
2023/07/23 06:11:34;;;;;;;7.63;3.65;;;15.10;99.90;;;;;;5093816;28;20284;-45
2023/07/23 06:14:00;;;;;;;6.88;3.28;;;15.10;99.90;;;;;;5092650;28;20048;-46
2023/07/23 06:16:26;;;;;;;5.57;2.50;;;15.10;99.90;;;;;;5093716;28;20411;-46
2023/07/23 06:18:51;;;;;;;7.25;3.10;;;15.10;99.90;;;;;;5093744;28;20375;-45
2023/07/23 06:21:17;;;;;;;7.07;3.28;;;15.10;99.90;;;;;;5093603;28;20036;-46
2023/07/23 06:23:43;;;;;;;7.45;3.25;;;15.10;99.90;;;;;;5093932;28;20056;-45
2023/07/23 06:26:08;;;;;;;8.13;3.00;;;15.10;99.90;;;;;;5093672;28;20044;-45
2023/07/23 06:28:34;;;;;;;8.07;3.03;;;15.10;99.90;;;;;;5093456;28;20123;-46
2023/07/23 06:31:00;;;;;;;5.97;2.93;;;15.10;99.90;;;;;;5092675;28;20297;-45
2023/07/23 06:33:27;;;;;;;7.07;3.33;;;15.10;99.90;;;;;;5093536;28;20124;-46
2023/07/23 06:35:53;;;;;;;6.47;2.80;;;15.20;99.90;;;;;;5093971;28;20059;-45
2023/07/23 06:38:18;;;;;;;6.35;3.17;;;15.20;99.90;;;;;;5093411;28;20048;-45
2023/07/23 06:40:50;;;;;;;6.07;2.97;;;15.20;99.90;;;;;;5126433;28;20136;-45
2023/07/23 06:43:16;;;;;;;8.25;3.47;;;15.20;99.90;;;;;;5093488;28;20301;-45
2023/07/23 06:45:44;;;;;;;5.80;2.80;;;15.30;99.90;;;;;;5093623;28;20044;-45
2023/07/23 06:48:11;;;;;;;6.70;3.42;;;15.30;99.90;;;;;;5092332;28;20048;-46
2023/07/23 06:50:37;;;;;;;8.63;3.55;;;15.30;99.90;;;;;;5093420;28;20097;-45
2023/07/23 06:53:04;;;;;;;7.38;3.60;;;15.30;99.90;;;;;;5093344;28;20044;-45
2023/07/23 06:55:30;;;;;;;6.97;3.33;;;15.30;99.90;;;;;;5093383;28;20044;-45
2023/07/23 06:57:56;;;;;;;6.63;2.85;;;15.30;99.90;;;;;;5093472;28;20044;-45
2023/07/23 07:00:22;;;;;;;7.90;3.53;;;15.40;99.90;;;;;;5095222;28;20383;-46
2023/07/23 07:02:47;;;;;;;7.97;4.00;;;15.30;99.90;;;;;;5095739;28;20051;-45
2023/07/23 07:05:13;;;;;;;8.20;3.50;;;15.30;99.90;;;;;;5097605;28;20056;-45
2023/07/23 07:07:39;;;;;;;7.13;3.60;;;15.40;99.90;;;;;;5096120;28;20333;-45
2023/07/23 07:10:05;;;;;;;7.80;3.57;;;15.40;99.90;;;;;;5097203;28;20324;-46
2023/07/23 07:12:31;;;;;;;8.20;3.90;;;15.40;99.90;;;;;;5096894;28;20274;-45
2023/07/23 07:14:57;;;;;;;9.25;4.28;;;15.50;99.90;;;;;;5095764;28;20117;-45
2023/07/23 07:17:22;;;;;;;9.63;3.85;;;15.50;99.90;;;;;;5095794;28;20079;-45
2023/07/23 07:19:48;;;;;;;7.50;3.63;;;15.50;99.90;;;;;;5097114;28;20103;-44
2023/07/23 07:22:14;;;;;;;8.02;3.28;;;15.60;99.90;;;;;;5097172;28;20394;-45
2023/07/23 07:24:39;;;;;;;10.73;3.88;;;15.60;99.90;;;;;;5096798;28;20043;-45
2023/07/23 07:27:09;;;;;;;8.67;3.90;;;15.60;99.90;;;;;;5096786;28;20040;-45
2023/07/23 07:29:39;;;;;;;8.02;3.85;;;15.60;99.90;;;;;;5096583;28;20084;-45
2023/07/23 07:32:10;;;;;;;9.05;3.67;;;15.60;99.90;;;;;;5096786;28;20429;-45
2023/07/23 07:34:36;;;;;;;7.18;3.60;;;15.60;99.90;;;;;;5096661;28;20399;-45
2023/07/23 07:37:02;;;;;;;9.33;4.00;;;15.60;99.90;;;;;;5096360;28;20044;-44
2023/07/23 07:39:28;;;;;;;8.60;4.22;;;15.60;99.90;;;;;;5096504;28;20289;-45
2023/07/23 07:41:53;;;;;;;9.32;3.80;;;15.60;99.90;;;;;;5096138;28;20491;-44
2023/07/23 07:44:22;;;;;;;8.05;4.50;;;15.60;99.90;;;;;;5096218;28;20057;-45
2023/07/23 07:46:48;;;;;;;8.52;3.90;;;15.60;99.90;;;;;;5096361;28;20127;-45
2023/07/23 07:49:14;;;;;;;8.40;3.87;;;15.60;99.90;;;;;;5096296;28;20135;-45
2023/07/23 07:51:43;;;;;;;7.30;3.63;;;15.60;99.90;;;;;;5096199;28;20270;-45
2023/07/23 07:54:09;;;;;;;8.77;4.28;;;15.60;99.90;;;;;;5096235;28;20514;-46
2023/07/23 07:56:35;;;;;;;;;;;15.60;99.90;;;;;;5096376;28;20048;-46
2023/07/23 07:59:02;;;;;;;8.52;3.70;;;15.60;99.90;;;;;;5096173;28;19989;-45
2023/07/23 08:01:29;;;;;;;8.73;3.72;;;15.60;99.90;;;;;;5096269;28;20398;-45
2023/07/23 08:03:54;;;;;;;8.77;4.07;;;15.70;99.90;;;;;;5096021;28;20052;-45
2023/07/23 08:06:22;;;;;;;7.80;3.42;;;15.70;99.90;;;;;;5096256;28;20509;-45
2023/07/23 08:08:49;;;;;;;7.05;3.30;;;15.60;99.90;;;;;;5095983;28;20048;-45
2023/07/23 08:11:14;;;;;;;7.35;3.75;;;15.70;99.90;;;;;;5094358;28;20087;-45
2023/07/23 08:13:41;;;;;;;8.73;3.78;;;15.70;99.90;;;;;;5095650;28;20075;-44
2023/07/23 08:16:07;;;;;;;11.68;4.20;;;15.70;99.90;;;;;;5095876;28;20090;-45
2023/07/23 08:18:33;;;;;;;9.95;4.38;;;15.70;99.90;;;;;;5095704;28;20086;-45
2023/07/23 08:20:59;;;;;;;;;;;15.70;99.90;;;;;;5096082;28;20082;-46
2023/07/23 08:23:25;;;;;;;9.00;3.92;;;15.70;99.90;;;;;;5095530;28;19920;-45
2023/07/23 08:25:55;;;;;;;9.32;4.00;;;15.70;99.90;;;;;;5094551;28;20066;-45
2023/07/23 08:28:27;;;;;;;8.70;3.90;;;15.70;99.90;;;;;;5095317;28;20051;-45
2023/07/23 08:30:54;;;;;;;10.18;4.35;;;15.80;99.90;;;;;;5095643;28;20131;-45
2023/07/23 08:33:22;;;;;;;9.75;4.00;;;15.80;99.90;;;;;;5095496;28;20109;-45
2023/07/23 08:35:48;;;;;;;7.93;3.45;;;15.80;99.90;;;;;;5095263;28;20109;-45
2023/07/23 08:38:17;;;;;;;7.10;3.45;;;15.80;99.90;;;;;;5095184;28;20044;-50
2023/07/23 08:40:45;;;;;;;8.85;3.63;;;15.80;99.90;;;;;;5095107;28;20112;-46
2023/07/23 08:43:54;;;;;;;7.90;4.32;;;15.90;99.90;;;;;;5095512;28;20074;-46
2023/07/23 08:46:27;;;;;;;8.63;3.90;;;15.80;99.90;;;;;;5047605;28;20052;-46
2023/07/23 08:48:58;;;;;;;8.65;4.32;;;15.90;99.90;;;;;;5095051;28;20044;-45
2023/07/23 08:51:26;;;;;;;8.88;4.43;;;15.80;99.90;;;;;;5095144;28;20075;-46
2023/07/23 08:53:53;;;;;;;9.75;4.30;;;15.80;99.90;;;;;;5095360;28;20122;-45
2023/07/23 08:56:19;;;;;;;8.65;4.47;;;15.80;99.90;;;;;;5095022;28;20188;-45
2023/07/23 08:58:45;;;;;;;9.45;4.13;;;15.80;99.90;;;;;;5095010;28;20055;-45
2023/07/23 09:01:15;;;;;;;8.07;4.43;;;15.80;99.90;;;;;;5094704;28;20032;-47
2023/07/23 09:03:41;;;;;;;9.07;4.70;;;15.80;99.90;;;;;;5094440;28;20502;-45
2023/07/23 09:06:08;;;;;;;8.52;4.22;;;15.90;99.90;;;;;;5095361;28;20054;-45
2023/07/23 09:08:34;;;;;;;8.98;4.63;;;15.90;99.90;;;;;;5094670;28;20059;-46
2023/07/23 09:11:04;;;;;;;8.50;4.10;;;15.90;99.90;;;;;;5093949;28;20387;-45
2023/07/23 09:13:34;;;;;;;8.93;4.47;;;15.90;99.90;;;;;;5094421;28;20047;-46
2023/07/23 09:16:00;;;;;;;9.00;4.35;;;15.90;99.90;;;;;;5076456;28;20545;-44
2023/07/23 09:18:26;;;;;;;7.95;4.70;;;15.90;99.90;;;;;;5093820;28;20139;-45
2023/07/23 09:20:52;;;;;;;7.15;4.13;;;15.90;99.90;;;;;;5094471;28;20234;-44
2023/07/23 09:23:18;;;;;;;8.05;4.30;;;15.90;99.90;;;;;;5093715;28;20055;-47
2023/07/23 09:25:44;;;;;;;7.18;3.70;;;15.90;99.90;;;;;;5094570;28;20097;-45
2023/07/23 09:28:23;;;;;;;8.10;4.00;;;15.90;99.90;;;;;;5094458;28;20052;-44
2023/07/23 09:30:56;;;;;;;9.30;4.38;;;15.90;99.90;;;;;;5093251;28;20049;-44
2023/07/23 09:33:28;;;;;;;8.68;4.40;;;15.90;99.90;;;;;;5094425;28;20402;-45
2023/07/23 09:35:59;;;;;;;9.10;4.68;;;15.90;99.90;;;;;;5094179;28;20052;-44
2023/07/23 09:38:24;;;;;;;9.00;4.50;;;15.90;99.90;;;;;;5094390;28;20048;-45
2023/07/23 09:40:50;;;;;;;7.85;4.00;;;15.90;99.90;;;;;;5093029;28;20054;-44
2023/07/23 09:43:16;;;;;;;9.13;4.40;;;16.00;99.90;;;;;;5094146;28;20080;-44
2023/07/23 09:45:42;;;;;;;7.13;3.78;;;15.90;99.90;;;;;;5094130;28;20471;-43
2023/07/23 09:48:09;;;;;;;10.05;4.07;;;15.90;99.90;;;;;;5094056;28;20089;-43
2023/07/23 09:50:35;;;;;;;;;;;16.00;99.90;;;;;;5094380;28;20055;-43
2023/07/23 09:53:01;;;;;;;9.98;4.88;;;16.00;99.90;;;;;;5092843;28;19920;-45
2023/07/23 09:55:27;;;;;;;8.03;3.93;;;16.00;99.90;;;;;;5092751;28;20063;-43
2023/07/23 09:57:53;;;;;;;8.80;4.15;;;16.00;99.90;;;;;;5093842;28;20391;-45
2023/07/23 10:00:20;;;;;;;7.85;3.90;;;16.00;99.90;;;;;;5093915;28;20158;-44
2023/07/23 10:02:48;;;;;;;7.35;3.90;;;16.00;99.90;;;;;;5093873;28;20044;-44
2023/07/23 10:05:17;;;;;;;6.22;3.25;;;16.00;99.90;;;;;;5093359;28;20060;-45
2023/07/23 10:07:46;;;;;;;9.50;4.40;;;16.00;99.90;;;;;;5092845;28;20577;-43
2023/07/23 10:10:15;;;;;;;8.52;3.97;;;16.00;99.90;;;;;;5092688;28;20044;-44
2023/07/23 10:12:41;;;;;;;7.45;3.75;;;16.10;99.90;;;;;;5093774;28;20036;-43
2023/07/23 10:15:08;;;;;;;8.50;3.83;;;16.10;99.90;;;;;;5093854;28;20048;-43
2023/07/23 10:17:39;;;;;;;;;;;16.10;99.90;;;;;;5094034;28;20051;-44
2023/07/23 10:20:08;;;;;;;7.63;4.15;;;16.10;99.90;;;;;;5093594;28;19920;-44
2023/07/23 10:22:35;;;;;;;7.80;3.53;;;16.10;99.90;;;;;;5092477;28;20113;-43
2023/07/23 10:25:25;;;;;;;8.52;3.97;;;16.10;99.90;;;;;;5093451;28;20084;-44
2023/07/23 10:28:20;;;;;;;7.15;3.80;;;16.10;99.90;;;;;;5093712;28;20044;-45
2023/07/23 10:30:45;;;;;;;7.90;3.75;;;16.10;99.90;;;;;;5093654;28;20043;-45
2023/07/23 10:33:11;;;;;;;7.47;3.85;;;16.10;99.90;;;;;;5093560;28;20081;-44
2023/07/23 10:35:54;;;;;;;7.93;4.27;;;16.10;99.90;;;;;;5097767;28;20052;-44
2023/07/23 10:38:21;;;;;;;7.90;4.05;;;16.10;99.90;;;;;;5098122;28;20294;-44
2023/07/23 10:40:47;;;;;;;;;;;16.10;99.90;;;;;;5098647;28;20426;-44
2023/07/23 10:43:13;;;;;;;8.75;3.88;;;16.10;99.90;;;;;;5097628;28;19965;-44
2023/07/23 10:45:44;;;;;;;8.65;3.80;;;16.10;99.90;;;;;;5096650;28;20047;-44
2023/07/23 10:48:16;;;;;;;7.55;3.92;;;16.10;99.90;;;;;;5098141;28;20078;-43
2023/07/23 10:51:00;;;;;;;7.53;3.75;;;16.10;99.90;;;;;;5097645;28;20044;-43
2023/07/23 10:53:31;;;;;;;9.07;3.92;;;16.10;99.90;;;;;;5096463;28;20436;-43
2023/07/23 10:55:59;;;;;;;8.95;3.85;;;16.20;99.90;;;;;;5097407;28;20455;-43
2023/07/23 10:58:26;;;;;;;7.50;3.65;;;16.20;99.90;;;;;;5097125;28;20376;-43
2023/07/23 11:00:57;;;;;;;8.15;3.67;;;16.20;99.90;;;;;;5097251;28;20083;-43
2023/07/23 11:03:25;;;;;;;9.32;3.60;;;16.20;99.90;;;;;;5097163;28;20052;-43
2023/07/23 11:05:52;;;;;;;9.40;4.35;;;16.20;99.90;;;;;;5096964;28;20056;-44
2023/07/23 11:08:19;;;;;;;7.93;3.47;;;16.30;99.90;;;;;;5096896;28;20090;-43
2023/07/23 11:10:48;;;;;;;8.85;3.97;;;16.30;99.90;;;;;;5097034;28;20100;-44
2023/07/23 11:13:15;;;;;;;7.65;3.78;;;16.30;99.90;;;;;;5097283;28;20182;-45
2023/07/23 11:15:41;;;;;;;7.97;3.65;;;16.30;99.90;;;;;;5097117;28;20500;-44
2023/07/23 11:18:09;;;;;;;8.98;3.60;;;16.40;99.90;;;;;;5095859;28;20091;-43
2023/07/23 11:20:35;;;;;;;8.95;3.58;;;16.40;99.90;;;;;;5097009;28;20051;-45
2023/07/23 11:23:00;;;;;;;8.68;3.33;;;16.40;99.90;;;;;;5096788;28;20044;-44
2023/07/23 11:25:26;;;;;;;7.20;3.42;;;16.50;99.90;;;;;;5096288;28;20165;-44
2023/07/23 11:27:52;;;;;;;6.88;3.30;;;16.50;99.90;;;;;;5096676;28;20051;-44
2023/07/23 11:30:17;;;;;;;8.82;4.30;;;16.50;99.90;;;;;;5096567;28;20105;-44
2023/07/23 11:32:47;;;;;;;6.97;3.50;;;16.50;99.90;;;;;;5096589;28;20134;-45
2023/07/23 11:35:15;;;;;;;8.65;3.67;;;16.60;99.90;;;;;;5095284;28;20483;-44
2023/07/23 11:37:49;;;;;;;8.27;3.60;;;16.60;99.90;;;;;;5096212;28;20487;-45
2023/07/23 11:40:20;;;;;;;7.63;3.45;;;16.60;99.90;;;;;;5095079;28;20044;-45
2023/07/23 11:42:46;;;;;;;7.68;3.65;;;16.60;99.90;;;;;;5096231;28;20040;-44
2023/07/23 11:45:12;;;;;;;9.18;3.67;;;16.70;99.90;;;;;;5095196;28;20101;-44
2023/07/23 11:47:52;;;;;;;8.23;3.70;;;16.70;99.90;;;;;;5095061;28;20506;-44
2023/07/23 11:50:19;;;;;;;7.80;3.75;;;16.70;99.90;;;;;;5095837;28;20040;-44
2023/07/23 11:52:50;;;;;;;8.48;3.70;;;16.80;99.90;;;;;;5096294;28;20040;-45
2023/07/23 11:55:24;;;;;;;8.48;3.80;;;16.80;99.90;;;;;;5095167;28;20123;-45
2023/07/23 11:57:52;;;;;;;7.35;3.33;;;16.80;99.90;;;;;;5096183;28;20394;-45
2023/07/23 12:00:32;;;;;;;8.25;3.30;;;16.80;99.90;;;;;;5096027;28;20131;-44
2023/07/23 12:02:58;;;;;;;8.15;3.13;;;16.80;99.90;;;;;;5095873;28;20490;-45
2023/07/23 12:05:24;;;;;;;;;;;16.80;99.90;;;;;;5094881;28;20096;-44
2023/07/23 12:07:53;;;;;;;8.02;3.35;;;16.80;99.90;;;;;;5096056;28;19924;-44
2023/07/23 12:10:20;;;;;;;6.55;3.65;;;16.80;99.90;;;;;;5095822;28;20040;-44
2023/07/23 12:12:46;;;;;;;;;;;16.80;99.90;;;;;;5096092;28;20502;-46
2023/07/23 12:15:13;;;;;;;9.18;3.28;;;16.80;99.90;;;;;;5095673;28;19971;-45
2023/07/23 12:17:39;;;;;;;6.97;3.00;;;16.80;99.90;;;;;;5094377;28;20044;-44
2023/07/23 12:20:09;;;;;;;5.57;2.95;;;16.80;99.90;;;;;;5096031;28;20182;-44
2023/07/23 12:22:55;;;;;;;6.70;2.85;;;16.80;99.90;;;;;;5095543;28;20060;-45
2023/07/23 12:25:25;;;;;;;7.25;3.47;;;16.80;99.90;;;;;;5095629;28;20040;-46
2023/07/23 12:27:51;;;;;;;6.90;3.00;;;16.70;99.90;;;;;;5095517;28;20040;-45
2023/07/23 12:30:17;;;;;;;7.43;3.38;;;16.80;99.90;;;;;;5095239;28;20043;-46
2023/07/23 12:32:47;;;;;;;6.03;2.95;;;16.80;99.90;;;;;;5095538;28;20036;-45
2023/07/23 12:35:14;;;;;;;7.15;3.15;;;16.80;99.90;;;;;;5095358;28;20044;-44
2023/07/23 12:37:39;;;;;;;;;;;16.80;99.90;;;;;;5095807;28;20044;-44
2023/07/23 12:40:08;;;;;;;7.45;3.00;;;16.80;99.90;;;;;;5094183;28;19927;-47
2023/07/23 12:42:34;;;;;;;5.90;2.55;;;16.90;99.90;;;;;;5093935;28;20136;-46
2023/07/23 12:45:01;;;;;;;6.18;3.28;;;16.90;99.90;;;;;;5095253;28;20048;-44
2023/07/23 12:47:28;;;;;;;6.25;2.70;;;17.00;99.90;;;;;;5095311;28;20044;-44
2023/07/23 12:49:59;;;;;;;6.05;2.90;;;17.10;99.90;;;;;;5094179;28;20055;-45